Alsey, Illinois
Current Conditions -  °F | °C
As of 7:35 AM on Monday 24 Nov 2014 (Local Time) from KIJX Reporting Station
Overcast Overcast  
Wind Chill: 27°   Ceiling: 1900
Heat Index: 37°   Visibility: 10mi
Dew Point: 32°   Wind: 16mph
Humidity: 84%   Direction: 260°W
Pressure: 29.44"   Gusts: 25mph
Location:  39.56°N, 90.43°W
Report Text: KIJX 241335Z AUTO 26014G22KT 10SM OVC019 03/00 A2944 RMK AO2 P0001 T00250000
Loading
Personal Weather Stations






























Interactive Weather Map New forecast layout! Learn more

10-Day Weather Forecast

Advertisements
Track Severe Weather on mobile